sensor_id;sensor_type;location;lat;lon;timestamp;pressure;altitude;pressure_sealevel;temperature;humidity
45523;BME280;31254;51.680;5.394;2023-02-13T00:00:55;103783.56;;;8.26;79.09
45523;BME280;31254;51.680;5.394;2023-02-13T00:03:25;103779.06;;;8.25;79.47
45523;BME280;31254;51.680;5.394;2023-02-13T00:05:52;103722.25;;;7.95;79.70
45523;BME280;31254;51.680;5.394;2023-02-13T00:08:18;103753.19;;;8.15;79.83
45523;BME280;31254;51.680;5.394;2023-02-13T00:10:46;103736.38;;;8.05;79.63
45523;BME280;31254;51.680;5.394;2023-02-13T00:13:16;103775.47;;;8.24;79.68
45523;BME280;31254;51.680;5.394;2023-02-13T00:15:44;103750.59;;;8.12;79.97
45523;BME280;31254;51.680;5.394;2023-02-13T00:18:11;103773.69;;;8.23;79.55
45523;BME280;31254;51.680;5.394;2023-02-13T00:20:37;103754.06;;;8.15;79.76
45523;BME280;31254;51.680;5.394;2023-02-13T00:23:06;103748.69;;;8.14;79.83
45523;BME280;31254;51.680;5.394;2023-02-13T00:25:33;103761.94;;;8.23;79.81
45523;BME280;31254;51.680;5.394;2023-02-13T00:28:00;103759.34;;;8.20;79.72
45523;BME280;31254;51.680;5.394;2023-02-13T00:30:26;103752.03;;;8.20;80.13
45523;BME280;31254;51.680;5.394;2023-02-13T00:32:53;103727.25;;;8.06;80.10
45523;BME280;31254;51.680;5.394;2023-02-13T00:35:19;103758.28;;;8.22;80.39
45523;BME280;31254;51.680;5.394;2023-02-13T00:37:46;103732.56;;;8.09;80.13
45523;BME280;31254;51.680;5.394;2023-02-13T00:40:15;103718.28;;;8.04;80.28
45523;BME280;31254;51.680;5.394;2023-02-13T00:42:44;103738.56;;;8.17;80.69
45523;BME280;31254;51.680;5.394;2023-02-13T00:45:11;103760.25;;;8.19;80.76
45523;BME280;31254;51.680;5.394;2023-02-13T00:47:40;103762.06;;;8.20;80.88
45523;BME280;31254;51.680;5.394;2023-02-13T00:50:07;103743.25;;;8.14;80.68
45523;BME280;31254;51.680;5.394;2023-02-13T00:52:33;103749.38;;;8.19;80.52
45523;BME280;31254;51.680;5.394;2023-02-13T00:55:02;103756.59;;;8.20;81.01
45523;BME280;31254;51.680;5.394;2023-02-13T00:57:31;103750.31;;;8.18;80.83
45523;BME280;31254;51.680;5.394;2023-02-13T01:00:00;103744.88;;;8.18;80.79
45523;BME280;31254;51.680;5.394;2023-02-13T01:02:27;103751.91;;;8.23;80.95
45523;BME280;31254;51.680;5.394;2023-02-13T01:04:53;103735.22;;;8.11;80.99
45523;BME280;31254;51.680;5.394;2023-02-13T01:07:20;103743.13;;;8.17;80.79
45523;BME280;31254;51.680;5.394;2023-02-13T01:09:49;103754.69;;;8.22;81.10
45523;BME280;31254;51.680;5.394;2023-02-13T01:12:15;103755.63;;;8.21;81.15
45523;BME280;31254;51.680;5.394;2023-02-13T01:14:42;103757.53;;;8.19;80.83
45523;BME280;31254;51.680;5.394;2023-02-13T01:17:08;103763.81;;;8.21;80.95
45523;BME280;31254;51.680;5.394;2023-02-13T01:19:35;103758.34;;;8.21;81.17
45523;BME280;31254;51.680;5.394;2023-02-13T01:22:01;103691.94;;;7.84;80.85
45523;BME280;31254;51.680;5.394;2023-02-13T01:24:30;103723.72;;;8.04;81.01
45523;BME280;31254;51.680;5.394;2023-02-13T01:27:00;103720.19;;;8.02;80.80
45523;BME280;31254;51.680;5.394;2023-02-13T01:29:28;103735.41;;;8.06;81.10
45523;BME280;31254;51.680;5.394;2023-02-13T01:31:57;103707.41;;;7.82;81.00
45523;BME280;31254;51.680;5.394;2023-02-13T01:34:24;103728.28;;;8.03;81.26
45523;BME280;31254;51.680;5.394;2023-02-13T01:36:50;103740.66;;;8.11;81.27
45523;BME280;31254;51.680;5.394;2023-02-13T01:39:17;103738.75;;;8.13;81.33
45523;BME280;31254;51.680;5.394;2023-02-13T01:41:44;103741.53;;;8.11;81.49
45523;BME280;31254;51.680;5.394;2023-02-13T01:44:50;103740.66;;;8.11;81.19
45523;BME280;31254;51.680;5.394;2023-02-13T01:50:05;103734.53;;;8.05;81.69
45523;BME280;31254;51.680;5.394;2023-02-13T01:52:37;103739.97;;;8.05;81.60
45523;BME280;31254;51.680;5.394;2023-02-13T01:55:09;103712.47;;;7.91;81.46
45523;BME280;31254;51.680;5.394;2023-02-13T01:57:39;103714.25;;;7.92;81.67
45523;BME280;31254;51.680;5.394;2023-02-13T02:00:10;103732.88;;;8.01;81.64
45523;BME280;31254;51.680;5.394;2023-02-13T02:02:42;103737.38;;;8.02;81.84
45523;BME280;31254;51.680;5.394;2023-02-13T02:05:15;103711.78;;;7.86;82.07
45523;BME280;31254;51.680;5.394;2023-02-13T02:07:42;103717.03;;;7.91;82.29
45523;BME280;31254;51.680;5.394;2023-02-13T02:10:15;103729.59;;;7.93;82.45
45523;BME280;31254;51.680;5.394;2023-02-13T02:12:48;103697.72;;;7.75;82.35
45523;BME280;31254;51.680;5.394;2023-02-13T02:15:19;103676.59;;;7.59;81.97
45523;BME280;31254;51.680;5.394;2023-02-13T02:17:46;103732.25;;;7.95;82.19
45523;BME280;31254;51.680;5.394;2023-02-13T02:20:49;103725.94;;;7.94;82.18
45523;BME280;31254;51.680;5.394;2023-02-13T02:35:27;103667.63;;;7.57;82.16
45523;BME280;31254;51.680;5.394;2023-02-13T02:40:42;103695.88;;;7.75;82.78
45523;BME280;31254;51.680;5.394;2023-02-13T02:46:28;103701.44;;;7.72;82.42
45523;BME280;31254;51.680;5.394;2023-02-13T02:49:14;103717.34;;;7.83;82.53
45523;BME280;31254;51.680;5.394;2023-02-13T02:52:04;103712.78;;;7.83;83.01
45523;BME280;31254;51.680;5.394;2023-02-13T02:54:39;103706.47;;;7.83;82.78
45523;BME280;31254;51.680;5.394;2023-02-13T02:57:33;103693.22;;;7.74;83.01
45523;BME280;31254;51.680;5.394;2023-02-13T03:00:21;103717.28;;;7.84;82.76
45523;BME280;31254;51.680;5.394;2023-02-13T03:03:21;103716.41;;;7.84;82.89
45523;BME280;31254;51.680;5.394;2023-02-13T03:08:43;103729.03;;;7.85;82.60
45523;BME280;31254;51.680;5.394;2023-02-13T03:11:29;103718.97;;;7.87;82.43
45523;BME280;31254;51.680;5.394;2023-02-13T03:14:19;103649.22;;;7.42;82.69
45523;BME280;31254;51.680;5.394;2023-02-13T03:16:47;103707.84;;;7.71;82.79
45523;BME280;31254;51.680;5.394;2023-02-13T03:20:03;103700.44;;;7.75;82.70
45523;BME280;31254;51.680;5.394;2023-02-13T03:23:10;103654.28;;;7.51;82.94
45523;BME280;31254;51.680;5.394;2023-02-13T03:28:47;103712.84;;;7.82;82.67
45523;BME280;31254;51.680;5.394;2023-02-13T03:31:52;103715.59;;;7.80;82.86
45523;BME280;31254;51.680;5.394;2023-02-13T03:34:31;103697.91;;;7.70;83.06
45523;BME280;31254;51.680;5.394;2023-02-13T03:37:27;103712.13;;;7.77;83.28
45523;BME280;31254;51.680;5.394;2023-02-13T03:40:29;103698.28;;;7.61;83.14
45523;BME280;31254;51.680;5.394;2023-02-13T03:43:04;103635.44;;;7.24;83.42
45523;BME280;31254;51.680;5.394;2023-02-13T03:45:36;103722.50;;;7.67;83.58
45523;BME280;31254;51.680;5.394;2023-02-13T03:48:23;103712.88;;;7.58;83.61
45523;BME280;31254;51.680;5.394;2023-02-13T03:51:15;103715.97;;;7.49;83.72
45523;BME280;31254;51.680;5.394;2023-02-13T03:53:50;103718.84;;;7.44;84.01
45523;BME280;31254;51.680;5.394;2023-02-13T03:56:21;103724.44;;;7.40;84.45
45523;BME280;31254;51.680;5.394;2023-02-13T03:59:09;103717.72;;;7.26;84.55
45523;BME280;31254;51.680;5.394;2023-02-13T04:02:18;103723.38;;;7.20;84.91
45523;BME280;31254;51.680;5.394;2023-02-13T04:04:52;103721.84;;;7.13;85.08
45523;BME280;31254;51.680;5.394;2023-02-13T04:07:21;103714.00;;;7.05;85.47
45523;BME280;31254;51.680;5.394;2023-02-13T04:10:09;103717.81;;;7.00;85.48
45523;BME280;31254;51.680;5.394;2023-02-13T04:15:14;103723.69;;;6.87;85.82
45523;BME280;31254;51.680;5.394;2023-02-13T04:17:47;103720.28;;;6.82;85.97
45523;BME280;31254;51.680;5.394;2023-02-13T04:20:18;103686.72;;;6.59;86.02
45523;BME280;31254;51.680;5.394;2023-02-13T04:22:46;103717.06;;;6.71;85.98
45523;BME280;31254;51.680;5.394;2023-02-13T04:25:16;103700.44;;;6.55;86.21
45523;BME280;31254;51.680;5.394;2023-02-13T04:27:44;103685.28;;;6.48;86.00
45523;BME280;31254;51.680;5.394;2023-02-13T04:30:11;103721.16;;;6.56;86.28
45523;BME280;31254;51.680;5.394;2023-02-13T04:32:38;103725.00;;;6.50;86.47
45523;BME280;31254;51.680;5.394;2023-02-13T04:35:05;103727.00;;;6.45;86.39
45523;BME280;31254;51.680;5.394;2023-02-13T04:37:31;103719.06;;;6.39;86.51
45523;BME280;31254;51.680;5.394;2023-02-13T04:39:58;103716.41;;;6.37;86.64
45523;BME280;31254;51.680;5.394;2023-02-13T04:42:27;103710.34;;;6.29;86.96
45523;BME280;31254;51.680;5.394;2023-02-13T04:44:56;103695.50;;;6.14;86.99
45523;BME280;31254;51.680;5.394;2023-02-13T04:47:22;103709.78;;;6.19;87.52
45523;BME280;31254;51.680;5.394;2023-02-13T04:49:49;103705.63;;;6.09;87.64
45523;BME280;31254;51.680;5.394;2023-02-13T04:52:21;103689.69;;;5.98;87.46
45523;BME280;31254;51.680;5.394;2023-02-13T04:54:47;103682.50;;;5.96;87.60
45523;BME280;31254;51.680;5.394;2023-02-13T04:57:17;103637.56;;;5.62;87.60
45523;BME280;31254;51.680;5.394;2023-02-13T04:59:43;103683.75;;;5.85;87.93
45523;BME280;31254;51.680;5.394;2023-02-13T05:02:10;103699.66;;;5.98;87.99
45523;BME280;31254;51.680;5.394;2023-02-13T05:04:36;103689.09;;;5.89;88.31
45523;BME280;31254;51.680;5.394;2023-02-13T05:07:03;103694.66;;;5.84;88.04
45523;BME280;31254;51.680;5.394;2023-02-13T05:09:30;103705.44;;;5.85;88.26
45523;BME280;31254;51.680;5.394;2023-02-13T05:11:56;103694.78;;;5.79;88.16
45523;BME280;31254;51.680;5.394;2023-02-13T05:14:25;103686.84;;;5.73;88.36
45523;BME280;31254;51.680;5.394;2023-02-13T05:16:54;103706.53;;;5.80;88.04
45523;BME280;31254;51.680;5.394;2023-02-13T05:19:23;103616.22;;;5.23;88.38
45523;BME280;31254;51.680;5.394;2023-02-13T05:21:49;103699.63;;;5.70;88.58
45523;BME280;31254;51.680;5.394;2023-02-13T05:24:34;103676.66;;;5.53;88.83
45523;BME280;31254;51.680;5.394;2023-02-13T05:27:01;103687.31;;;5.59;88.71
45523;BME280;31254;51.680;5.394;2023-02-13T05:29:28;103691.81;;;5.59;88.91
45523;BME280;31254;51.680;5.394;2023-02-13T05:31:56;103690.06;;;5.58;88.84
45523;BME280;31254;51.680;5.394;2023-02-13T05:34:25;103679.66;;;5.44;88.81
45523;BME280;31254;51.680;5.394;2023-02-13T05:36:52;103680.75;;;5.38;89.35
45523;BME280;31254;51.680;5.394;2023-02-13T05:39:19;103686.81;;;5.46;88.95
45523;BME280;31254;51.680;5.394;2023-02-13T05:41:46;103697.63;;;5.46;89.27
45523;BME280;31254;51.680;5.394;2023-02-13T05:44:14;103688.81;;;5.40;89.43
45523;BME280;31254;51.680;5.394;2023-02-13T05:46:41;103695.25;;;5.36;89.53
45523;BME280;31254;51.680;5.394;2023-02-13T05:49:12;103609.38;;;4.81;89.40
45523;BME280;31254;51.680;5.394;2023-02-13T05:51:41;103703.59;;;5.28;89.90
45523;BME280;31254;51.680;5.394;2023-02-13T05:54:08;103699.19;;;5.25;89.75
45523;BME280;31254;51.680;5.394;2023-02-13T05:56:35;103713.69;;;5.23;89.70
45523;BME280;31254;51.680;5.394;2023-02-13T05:59:02;103616.97;;;4.68;89.66
45523;BME280;31254;51.680;5.394;2023-02-13T06:01:31;103687.06;;;5.07;89.63
45523;BME280;31254;51.680;5.394;2023-02-13T06:04:00;103698.59;;;5.14;89.83
45523;BME280;31254;51.680;5.394;2023-02-13T06:06:31;103696.94;;;5.08;89.90
45523;BME280;31254;51.680;5.394;2023-02-13T06:08:58;103674.94;;;4.91;89.89
45523;BME280;31254;51.680;5.394;2023-02-13T06:11:27;103698.91;;;5.03;89.88
45523;BME280;31254;51.680;5.394;2023-02-13T06:13:55;103695.38;;;5.01;90.27
45523;BME280;31254;51.680;5.394;2023-02-13T06:16:27;103700.00;;;4.98;90.35
45523;BME280;31254;51.680;5.394;2023-02-13T06:18:58;103708.16;;;4.96;89.92
45523;BME280;31254;51.680;5.394;2023-02-13T06:21:24;103697.50;;;4.90;90.21
45523;BME280;31254;51.680;5.394;2023-02-13T06:23:51;103702.91;;;4.90;90.53
45523;BME280;31254;51.680;5.394;2023-02-13T06:26:18;103684.34;;;4.76;89.87
45523;BME280;31254;51.680;5.394;2023-02-13T06:28:45;103703.00;;;4.87;90.08
45523;BME280;31254;51.680;5.394;2023-02-13T06:31:11;103682.63;;;4.73;90.23
45523;BME280;31254;51.680;5.394;2023-02-13T06:33:38;103702.28;;;4.80;90.51
45523;BME280;31254;51.680;5.394;2023-02-13T06:36:05;103681.88;;;4.68;90.07
45523;BME280;31254;51.680;5.394;2023-02-13T06:38:32;103700.66;;;4.73;89.97
45523;BME280;31254;51.680;5.394;2023-02-13T06:41:00;103686.63;;;4.60;89.99
45523;BME280;31254;51.680;5.394;2023-02-13T06:43:32;103685.03;;;4.51;90.14
45523;BME280;31254;51.680;5.394;2023-02-13T06:46:05;103660.22;;;4.35;89.96
45523;BME280;31254;51.680;5.394;2023-02-13T06:48:32;103568.88;;;3.81;89.96
45523;BME280;31254;51.680;5.394;2023-02-13T06:51:01;103701.22;;;4.53;90.46
45523;BME280;31254;51.680;5.394;2023-02-13T06:53:28;103722.56;;;4.64;90.51
45523;BME280;31254;51.680;5.394;2023-02-13T06:56:02;103680.88;;;4.38;90.12
45523;BME280;31254;51.680;5.394;2023-02-13T06:58:29;103709.31;;;4.53;89.90
45523;BME280;31254;51.680;5.394;2023-02-13T07:00:55;103692.50;;;4.42;90.53
45523;BME280;31254;51.680;5.394;2023-02-13T07:03:22;103721.91;;;4.54;89.88
45523;BME280;31254;51.680;5.394;2023-02-13T07:05:49;103714.72;;;4.53;90.37
45523;BME280;31254;51.680;5.394;2023-02-13T07:08:17;103714.75;;;4.51;90.23
45523;BME280;31254;51.680;5.394;2023-02-13T07:10:44;103719.34;;;4.49;90.19
45523;BME280;31254;51.680;5.394;2023-02-13T07:13:11;103715.75;;;4.49;90.19
45523;BME280;31254;51.680;5.394;2023-02-13T07:15:37;103699.72;;;4.41;90.69
45523;BME280;31254;51.680;5.394;2023-02-13T07:18:05;103721.25;;;4.46;90.08
45523;BME280;31254;51.680;5.394;2023-02-13T07:20:32;103730.22;;;4.46;89.84
45523;BME280;31254;51.680;5.394;2023-02-13T07:23:02;103727.56;;;4.45;90.21
45523;BME280;31254;51.680;5.394;2023-02-13T07:25:30;103731.06;;;4.48;90.27
45523;BME280;31254;51.680;5.394;2023-02-13T07:28:03;103725.72;;;4.45;89.74
45523;BME280;31254;51.680;5.394;2023-02-13T07:30:31;103631.69;;;3.89;89.74
45523;BME280;31254;51.680;5.394;2023-02-13T07:33:02;103726.38;;;4.55;89.66
45523;BME280;31254;51.680;5.394;2023-02-13T07:35:29;103732.56;;;4.60;89.15
45523;BME280;31254;51.680;5.394;2023-02-13T07:37:56;103721.81;;;4.58;88.89
45523;BME280;31254;51.680;5.394;2023-02-13T07:40:26;103719.06;;;4.60;89.03
45523;BME280;31254;51.680;5.394;2023-02-13T07:42:54;103726.84;;;4.71;88.47
45523;BME280;31254;51.680;5.394;2023-02-13T07:45:21;103735.66;;;4.79;88.35
45523;BME280;31254;51.680;5.394;2023-02-13T07:47:48;103710.69;;;4.69;88.71
45523;BME280;31254;51.680;5.394;2023-02-13T07:50:14;103723.13;;;4.76;88.24
45523;BME280;31254;51.680;5.394;2023-02-13T07:52:41;103717.66;;;4.78;88.56
45523;BME280;31254;51.680;5.394;2023-02-13T07:55:08;103734.41;;;4.92;88.03
45523;BME280;31254;51.680;5.394;2023-02-13T07:57:36;103721.03;;;4.86;88.88
45523;BME280;31254;51.680;5.394;2023-02-13T08:00:04;103743.25;;;4.99;88.30
45523;BME280;31254;51.680;5.394;2023-02-13T08:02:35;103737.88;;;4.98;88.22
45523;BME280;31254;51.680;5.394;2023-02-13T08:05:04;103744.78;;;5.08;88.65
45523;BME280;31254;51.680;5.394;2023-02-13T08:07:33;103743.81;;;5.10;88.28
45523;BME280;31254;51.680;5.394;2023-02-13T08:10:00;103656.75;;;4.63;88.27
45523;BME280;31254;51.680;5.394;2023-02-13T08:12:46;103747.16;;;5.20;88.48
45523;BME280;31254;51.680;5.394;2023-02-13T08:15:14;103759.59;;;5.26;88.08
45523;BME280;31254;51.680;5.394;2023-02-13T08:17:43;103755.97;;;5.27;88.06
45523;BME280;31254;51.680;5.394;2023-02-13T08:20:10;103753.19;;;5.30;88.16
45523;BME280;31254;51.680;5.394;2023-02-13T08:22:38;103766.38;;;5.41;88.45
45523;BME280;31254;51.680;5.394;2023-02-13T08:25:05;103744.16;;;5.29;88.50
45523;BME280;31254;51.680;5.394;2023-02-13T08:27:35;103764.28;;;5.50;88.12
45523;BME280;31254;51.680;5.394;2023-02-13T08:30:02;103762.34;;;5.56;88.37
45523;BME280;31254;51.680;5.394;2023-02-13T08:32:32;103747.13;;;5.52;88.10
45523;BME280;31254;51.680;5.394;2023-02-13T08:35:18;103753.09;;;5.63;88.13
45523;BME280;31254;51.680;5.394;2023-02-13T08:37:44;103768.16;;;5.72;88.21
45523;BME280;31254;51.680;5.394;2023-02-13T08:40:13;103765.31;;;5.76;88.16
45523;BME280;31254;51.680;5.394;2023-02-13T08:42:40;103761.69;;;5.77;88.53
45523;BME280;31254;51.680;5.394;2023-02-13T08:45:07;103724.22;;;5.62;88.58
45523;BME280;31254;51.680;5.394;2023-02-13T08:47:39;103618.69;;;5.02;88.63
45523;BME280;31254;51.680;5.394;2023-02-13T08:50:06;103771.00;;;5.98;88.18
45523;BME280;31254;51.680;5.394;2023-02-13T08:52:33;103739.69;;;5.88;88.41
45523;BME280;31254;51.680;5.394;2023-02-13T08:55:00;103748.34;;;6.01;88.33
45523;BME280;31254;51.680;5.394;2023-02-13T08:57:28;103763.38;;;6.11;88.40
45523;BME280;31254;51.680;5.394;2023-02-13T08:59:58;103751.59;;;6.12;88.45
45523;BME280;31254;51.680;5.394;2023-02-13T09:02:25;103765.59;;;6.25;88.51
45523;BME280;31254;51.680;5.394;2023-02-13T09:04:54;103765.41;;;6.31;88.94
45523;BME280;31254;51.680;5.394;2023-02-13T09:07:21;103767.03;;;6.37;88.77
45523;BME280;31254;51.680;5.394;2023-02-13T09:09:50;103736.75;;;6.24;88.11
45523;BME280;31254;51.680;5.394;2023-02-13T09:12:17;103756.00;;;6.43;88.18
45523;BME280;31254;51.680;5.394;2023-02-13T09:14:46;103771.88;;;6.54;88.15
45523;BME280;31254;51.680;5.394;2023-02-13T09:17:13;103767.09;;;6.62;87.95
45523;BME280;31254;51.680;5.394;2023-02-13T09:19:43;103688.09;;;6.19;87.89
45523;BME280;31254;51.680;5.394;2023-02-13T09:22:11;103753.97;;;6.75;87.96
45523;BME280;31254;51.680;5.394;2023-02-13T09:24:41;103762.38;;;7.19;86.96
45523;BME280;31254;51.680;5.394;2023-02-13T09:27:10;103769.44;;;7.71;86.83
45523;BME280;31254;51.680;5.394;2023-02-13T09:29:36;103750.44;;;8.37;82.98
45523;BME280;31254;51.680;5.394;2023-02-13T09:32:04;103765.44;;;8.90;81.25
45523;BME280;31254;51.680;5.394;2023-02-13T09:34:33;103733.78;;;9.08;80.59
45523;BME280;31254;51.680;5.394;2023-02-13T09:37:00;103760.63;;;9.36;80.81
45523;BME280;31254;51.680;5.394;2023-02-13T09:39:27;103742.69;;;9.51;80.09
45523;BME280;31254;51.680;5.394;2023-02-13T09:41:54;103762.97;;;9.83;79.39
45523;BME280;31254;51.680;5.394;2023-02-13T09:44:39;103752.84;;;10.04;79.19
45523;BME280;31254;51.680;5.394;2023-02-13T09:52:44;103759.47;;;10.37;78.19
45523;BME280;31254;51.680;5.394;2023-02-13T09:55:15;103763.84;;;10.39;78.27
45523;BME280;31254;51.680;5.394;2023-02-13T10:00:29;103756.84;;;10.53;78.25
45523;BME280;31254;51.680;5.394;2023-02-13T10:16:42;103749.50;;;10.88;77.50
45523;BME280;31254;51.680;5.394;2023-02-13T10:22:30;103759.16;;;10.95;77.72
45523;BME280;31254;51.680;5.394;2023-02-13T10:25:05;103744.88;;;10.90;77.57
45523;BME280;31254;51.680;5.394;2023-02-13T10:27:44;103747.97;;;11.00;77.75
45523;BME280;31254;51.680;5.394;2023-02-13T10:30:49;103750.84;;;11.14;77.74
45523;BME280;31254;51.680;5.394;2023-02-13T10:33:20;103742.28;;;11.05;77.26
45523;BME280;31254;51.680;5.394;2023-02-13T10:35:58;103750.41;;;11.06;77.36
45523;BME280;31254;51.680;5.394;2023-02-13T10:38:30;103746.75;;;11.06;77.49
45523;BME280;31254;51.680;5.394;2023-02-13T10:43:38;103717.03;;;11.00;77.30
45523;BME280;31254;51.680;5.394;2023-02-13T10:51:28;103740.06;;;11.45;76.23
45523;BME280;31254;51.680;5.394;2023-02-13T11:00:26;103737.03;;;11.83;75.50
45523;BME280;31254;51.680;5.394;2023-02-13T11:02:58;103739.00;;;11.97;75.24
45523;BME280;31254;51.680;5.394;2023-02-13T11:05:36;103708.34;;;11.90;74.85
45523;BME280;31254;51.680;5.394;2023-02-13T11:08:31;103715.69;;;12.05;74.39
45523;BME280;31254;51.680;5.394;2023-02-13T11:10:55;103719.91;;;12.27;74.31
45523;BME280;31254;51.680;5.394;2023-02-13T11:13:24;103717.16;;;12.27;74.24
45523;BME280;31254;51.680;5.394;2023-02-13T11:16:00;103718.00;;;12.43;73.64
45523;BME280;31254;51.680;5.394;2023-02-13T11:18:31;103706.75;;;12.18;73.94
45523;BME280;31254;51.680;5.394;2023-02-13T11:21:13;103706.16;;;12.13;74.18
45523;BME280;31254;51.680;5.394;2023-02-13T11:23:48;103673.06;;;12.01;73.98
45523;BME280;31254;51.680;5.394;2023-02-13T11:26:30;103649.59;;;11.97;73.61
45523;BME280;31254;51.680;5.394;2023-02-13T11:29:23;103705.81;;;12.49;73.18
45523;BME280;31254;51.680;5.394;2023-02-13T11:32:02;103701.25;;;12.64;72.78
45523;BME280;31254;51.680;5.394;2023-02-13T11:34:32;103700.28;;;12.79;72.50
45523;BME280;31254;51.680;5.394;2023-02-13T11:39:42;103677.78;;;12.89;71.95
45523;BME280;31254;51.680;5.394;2023-02-13T11:42:13;103690.25;;;13.09;71.85
45523;BME280;31254;51.680;5.394;2023-02-13T11:44:43;103625.84;;;12.87;71.42
45523;BME280;31254;51.680;5.394;2023-02-13T11:47:13;103681.47;;;13.32;71.15
45523;BME280;31254;51.680;5.394;2023-02-13T11:49:46;103683.72;;;13.40;70.81
45523;BME280;31254;51.680;5.394;2023-02-13T11:52:30;103690.63;;;13.46;71.08
45523;BME280;31254;51.680;5.394;2023-02-13T11:55:00;103695.13;;;13.61;70.50
45523;BME280;31254;51.680;5.394;2023-02-13T11:57:33;103696.09;;;13.60;70.56
45523;BME280;31254;51.680;5.394;2023-02-13T12:00:25;103660.53;;;13.59;70.58
45523;BME280;31254;51.680;5.394;2023-02-13T12:02:55;103701.47;;;13.76;70.01
45523;BME280;31254;51.680;5.394;2023-02-13T12:05:25;103680.03;;;13.68;70.14
45523;BME280;31254;51.680;5.394;2023-02-13T12:07:54;103680.75;;;13.58;70.36
45523;BME280;31254;51.680;5.394;2023-02-13T12:10:26;103663.50;;;13.56;70.10
45523;BME280;31254;51.680;5.394;2023-02-13T12:12:57;103669.16;;;13.67;70.26
45523;BME280;31254;51.680;5.394;2023-02-13T12:15:33;103640.28;;;13.61;69.99
45523;BME280;31254;51.680;5.394;2023-02-13T12:20:47;103638.63;;;13.44;70.08
45523;BME280;31254;51.680;5.394;2023-02-13T12:23:56;103664.09;;;13.61;70.47
45523;BME280;31254;51.680;5.394;2023-02-13T12:26:37;103661.56;;;13.58;70.32
45523;BME280;31254;51.680;5.394;2023-02-13T12:37:39;103579.84;;;13.07;69.83
45523;BME280;31254;51.680;5.394;2023-02-13T12:40:22;103647.47;;;13.49;69.95
45523;BME280;31254;51.680;5.394;2023-02-13T12:46:00;103618.63;;;13.57;69.45
45523;BME280;31254;51.680;5.394;2023-02-13T12:49:10;103634.34;;;13.82;69.34
45523;BME280;31254;51.680;5.394;2023-02-13T12:57:51;103642.22;;;13.86;68.68
45523;BME280;31254;51.680;5.394;2023-02-13T13:13:44;103617.22;;;13.91;68.08
45523;BME280;31254;51.680;5.394;2023-02-13T13:22:06;103578.44;;;14.10;67.95
45523;BME280;31254;51.680;5.394;2023-02-13T13:24:51;103599.66;;;14.34;67.42
45523;BME280;31254;51.680;5.394;2023-02-13T13:27:49;103577.25;;;14.27;67.27
45523;BME280;31254;51.680;5.394;2023-02-13T13:30:19;103591.78;;;14.42;66.88
45523;BME280;31254;51.680;5.394;2023-02-13T13:32:53;103593.97;;;14.50;66.80
45523;BME280;31254;51.680;5.394;2023-02-13T13:35:23;103570.97;;;14.25;66.83
45523;BME280;31254;51.680;5.394;2023-02-13T13:40:50;103566.69;;;14.08;67.39
45523;BME280;31254;51.680;5.394;2023-02-13T13:47:01;103585.50;;;14.27;67.45
45523;BME280;31254;51.680;5.394;2023-02-13T13:49:53;103576.47;;;14.25;67.26
45523;BME280;31254;51.680;5.394;2023-02-13T13:54:48;103574.72;;;14.11;67.29
45523;BME280;31254;51.680;5.394;2023-02-13T13:57:19;103559.22;;;14.10;67.20
45523;BME280;31254;51.680;5.394;2023-02-13T14:07:36;103460.06;;;13.22;67.96
45523;BME280;31254;51.680;5.394;2023-02-13T14:10:05;103555.09;;;13.77;67.66
45523;BME280;31254;51.680;5.394;2023-02-13T14:14:58;103526.84;;;13.35;67.80
45523;BME280;31254;51.680;5.394;2023-02-13T14:20:35;103559.28;;;13.56;68.33
45523;BME280;31254;51.680;5.394;2023-02-13T14:25:59;103486.31;;;13.26;68.23
45523;BME280;31254;51.680;5.394;2023-02-13T14:28:35;103530.63;;;13.47;67.94
45523;BME280;31254;51.680;5.394;2023-02-13T14:31:14;103563.03;;;13.55;67.77
45523;BME280;31254;51.680;5.394;2023-02-13T14:37:04;103452.00;;;12.78;68.08
45523;BME280;31254;51.680;5.394;2023-02-13T14:39:36;103554.16;;;13.37;68.15
45523;BME280;31254;51.680;5.394;2023-02-13T14:42:27;103557.78;;;13.37;68.66
45523;BME280;31254;51.680;5.394;2023-02-13T14:44:57;103550.63;;;13.34;68.20
45523;BME280;31254;51.680;5.394;2023-02-13T14:47:30;103551.13;;;13.41;68.07
45523;BME280;31254;51.680;5.394;2023-02-13T14:50:06;103505.94;;;13.05;68.33
45523;BME280;31254;51.680;5.394;2023-02-13T14:52:42;103531.56;;;13.19;68.26
45523;BME280;31254;51.680;5.394;2023-02-13T14:55:32;103548.19;;;13.30;68.74
45523;BME280;31254;51.680;5.394;2023-02-13T14:58:07;103540.25;;;13.25;68.42
45523;BME280;31254;51.680;5.394;2023-02-13T15:03:36;103529.50;;;13.22;68.61
45523;BME280;31254;51.680;5.394;2023-02-13T15:06:11;103483.94;;;12.92;68.63
45523;BME280;31254;51.680;5.394;2023-02-13T15:08:47;103535.09;;;13.21;68.78
45523;BME280;31254;51.680;5.394;2023-02-13T15:11:32;103524.63;;;13.13;69.13
45523;BME280;31254;51.680;5.394;2023-02-13T15:14:34;103537.34;;;13.14;69.32
45523;BME280;31254;51.680;5.394;2023-02-13T15:17:17;103541.16;;;13.11;69.02
45523;BME280;31254;51.680;5.394;2023-02-13T15:19:46;103536.88;;;13.07;69.32
45523;BME280;31254;51.680;5.394;2023-02-13T15:24:51;103523.00;;;12.96;69.42
45523;BME280;31254;51.680;5.394;2023-02-13T15:27:40;103524.44;;;13.02;69.41
45523;BME280;31254;51.680;5.394;2023-02-13T15:32:52;103509.72;;;12.90;69.47
45523;BME280;31254;51.680;5.394;2023-02-13T15:35:31;103466.88;;;12.60;69.35
45523;BME280;31254;51.680;5.394;2023-02-13T15:37:59;103492.00;;;12.81;69.65
45523;BME280;31254;51.680;5.394;2023-02-13T15:40:35;103522.75;;;12.86;69.92
45523;BME280;31254;51.680;5.394;2023-02-13T15:43:20;103514.00;;;12.79;69.78
45523;BME280;31254;51.680;5.394;2023-02-13T15:45:48;103499.25;;;12.68;70.04
45523;BME280;31254;51.680;5.394;2023-02-13T15:48:16;103509.81;;;12.74;70.12
45523;BME280;31254;51.680;5.394;2023-02-13T15:50:43;103508.47;;;12.67;70.08
45523;BME280;31254;51.680;5.394;2023-02-13T15:53:14;103509.44;;;12.66;70.14